Time;durP1;ratioP1;P1;durP2;ratioP2;P2;SDS_P1;SDS_P2;PMS_P1;PMS_P2;Temp;Humidity;BMP_temperature;BMP_pressure;BME280_temperature;BME280_humidity;BME280_pressure;Samples;Min_cycle;Max_cycle;Signal;HPM_P1;HPM_P2
2021/04/17 00:01:18;;;;;;;9.33;6.87;;;;;;;5.72;62.37;99033.91;5054408;28;20032;-62
2021/04/17 00:03:44;;;;;;;9.47;7.63;;;;;;;5.73;62.46;99025.44;5052699;28;20426;-62
2021/04/17 00:06:10;;;;;;;10.20;8.00;;;;;;;5.66;62.69;99037.25;5054874;28;20056;-62
2021/04/17 00:08:35;;;;;;;7.50;6.67;;;;;;;5.61;62.63;99022.78;5053526;28;20025;-61
2021/04/17 00:11:02;;;;;;;7.53;6.50;;;;;;;5.69;62.63;99028.75;5053237;28;20279;-64
2021/04/17 00:13:27;;;;;;;9.57;7.47;;;;;;;5.69;62.15;99028.75;5054542;28;20040;-63
2021/04/17 00:15:53;;;;;;;8.80;7.27;;;;;;;5.79;62.12;99020.34;5052667;28;20025;-62
2021/04/17 00:18:19;;;;;;;8.03;7.20;;;;;;;5.80;61.93;99024.63;5054849;28;20386;-64
2021/04/17 00:20:45;;;;;;;8.23;6.93;;;;;;;5.70;62.20;99016.06;5052254;28;20040;-62
2021/04/17 00:23:10;;;;;;;9.37;7.13;;;;;;;5.57;62.42;99010.88;5055126;28;20037;-62
2021/04/17 00:25:35;;;;;;;7.27;6.33;;;;;;;5.73;61.96;99016.06;5053625;28;20037;-62
2021/04/17 00:28:01;;;;;;;8.27;6.97;;;;;;;5.74;61.81;99014.38;5053333;28;20381;-62
2021/04/17 00:30:26;;;;;;;8.23;7.03;;;;;;;5.60;62.16;99009.22;5052545;28;20040;-62
2021/04/17 00:32:52;;;;;;;7.30;6.43;;;;;;;5.59;62.80;99019.38;5054778;28;20026;-62
2021/04/17 00:35:17;;;;;;;7.83;6.80;;;;;;;5.55;62.80;99015.97;5036252;28;20039;-62
2021/04/17 00:37:42;;;;;;;9.17;7.70;;;;;;;5.62;62.56;99016.84;5026705;28;20369;-62
2021/04/17 00:40:09;;;;;;;8.53;7.13;;;;;;;5.59;62.57;99017.69;5051533;28;20081;-62
2021/04/17 00:42:34;;;;;;;8.27;7.37;;;;;;;5.57;62.36;99014.28;5053079;28;20039;-62
2021/04/17 00:44:59;;;;;;;10.70;7.70;;;;;;;5.55;63.01;99022.75;5050172;28;20025;-62
2021/04/17 00:47:25;;;;;;;9.20;7.53;;;;;;;5.60;62.77;99019.38;5055161;28;20683;-62
2021/04/17 00:49:51;;;;;;;9.17;6.63;;;;;;;5.58;62.73;99015.13;5053441;28;20017;-62
2021/04/17 00:52:16;;;;;;;7.93;7.13;;;;;;;5.47;63.26;99013.34;5054420;28;20047;-62
2021/04/17 00:54:42;;;;;;;8.90;7.27;;;;;;;5.45;63.35;99017.59;5052042;28;20056;-62
2021/04/17 00:57:07;;;;;;;8.70;7.73;;;;;;;5.48;63.21;99016.75;5052309;28;20060;-62
2021/04/17 00:59:32;;;;;;;9.63;7.03;;;;;;;5.43;63.18;99019.25;5052883;28;20029;-62
2021/04/17 01:01:58;;;;;;;11.40;7.73;;;;;;;5.44;63.48;99020.09;5034201;28;20297;-62
2021/04/17 01:04:38;;;;;;;8.93;7.37;;;;;;;5.46;63.45;99021.84;5053158;28;20045;-62
2021/04/17 01:07:27;;;;;;;10.20;7.37;;;;;;;5.47;63.45;99018.44;5053524;28;20041;-62
2021/04/17 01:10:03;;;;;;;10.03;7.60;;;;;;;5.48;63.62;99007.44;5050715;28;20028;-62
2021/04/17 01:12:32;;;;;;;10.03;8.10;;;;;;;5.37;63.68;99011.59;5053885;28;20101;-62
2021/04/17 01:14:58;;;;;;;10.30;7.93;;;;;;;5.39;63.50;99009.91;5052908;28;20032;-62
2021/04/17 01:17:24;;;;;;;11.13;8.80;;;;;;;5.48;63.42;99002.34;5049646;28;20444;-62
2021/04/17 01:20:06;;;;;;;9.97;8.10;;;;;;;5.43;63.94;99003.19;5053777;28;20048;-62
2021/04/17 01:22:33;;;;;;;9.53;7.30;;;;;;;5.39;63.29;99004.81;5039733;28;20123;-63
2021/04/17 01:25:14;;;;;;;8.87;7.73;;;;;;;5.32;63.70;98998.00;5052533;28;20155;-62
2021/04/17 01:27:40;;;;;;;11.63;8.07;;;;;;;5.39;63.56;99009.91;5052727;28;20038;-63
2021/04/17 01:30:16;;;;;;;9.43;8.23;;;;;;;5.49;63.59;99003.22;5051869;28;20029;-62
2021/04/17 01:32:44;;;;;;;10.10;8.03;;;;;;;5.45;63.20;99002.34;5053291;28;20033;-64
2021/04/17 01:35:13;;;;;;;9.83;7.77;;;;;;;5.42;63.57;99001.47;5051071;28;20336;-64
2021/04/17 01:37:50;;;;;;;10.70;8.13;;;;;;;5.43;63.48;98995.56;5050742;28;20052;-64
2021/04/17 01:40:17;;;;;;;9.07;7.50;;;;;;;5.39;63.29;98992.09;5052404;28;20028;-64
2021/04/17 01:42:44;;;;;;;9.10;7.90;;;;;;;5.48;63.41;98989.63;5053306;28;20032;-64
2021/04/17 01:45:11;;;;;;;10.57;8.03;;;;;;;5.57;62.60;98993.06;5053112;28;20033;-63
2021/04/17 01:47:37;;;;;;;8.80;7.90;;;;;;;5.47;62.54;98992.19;5053101;28;20037;-63
2021/04/17 01:50:04;;;;;;;9.97;7.67;;;;;;;5.56;62.28;98994.78;5054788;28;20386;-63
2021/04/17 01:52:30;;;;;;;9.77;8.60;;;;;;;5.51;62.27;98991.38;5052545;28;20337;-63
2021/04/17 01:54:57;;;;;;;9.17;8.20;;;;;;;5.55;62.68;98975.28;5051822;28;20419;-63
2021/04/17 01:57:27;;;;;;;10.70;7.63;;;;;;;5.59;62.61;98988.88;5052084;28;20056;-63
2021/04/17 01:59:53;;;;;;;10.43;7.83;;;;;;;5.56;62.86;98992.22;5053144;28;20025;-63
2021/04/17 02:02:19;;;;;;;10.27;7.90;;;;;;;5.50;63.31;98987.97;5052372;28;20091;-63
2021/04/17 02:04:45;;;;;;;10.07;7.87;;;;;;;5.52;63.36;98978.66;5026822;28;20268;-63
2021/04/17 02:07:10;;;;;;;10.13;8.03;;;;;;;5.53;62.91;98985.44;5049076;28;20087;-63
2021/04/17 02:09:36;;;;;;;15.90;9.03;;;;;;;5.56;63.42;98976.16;5036146;28;20029;-64
2021/04/17 02:12:02;;;;;;;11.03;8.33;;;;;;;5.59;62.97;98982.09;5050571;28;20504;-64
2021/04/17 02:14:29;;;;;;;13.23;7.83;;;;;;;5.66;62.78;98977.88;5050910;28;20041;-63
2021/04/17 02:17:02;;;;;;;10.53;8.30;;;;;;;5.63;63.49;98978.72;5052846;28;20033;-64
2021/04/17 02:19:35;;;;;;;11.50;7.67;;;;;;;5.57;63.69;98971.03;5050484;28;20278;-64
2021/04/17 02:22:01;;;;;;;11.27;8.47;;;;;;;5.58;63.42;98977.00;5052105;28;20032;-63
2021/04/17 02:24:28;;;;;;;11.47;8.30;;;;;;;5.59;63.49;98977.00;5048303;28;20029;-64
2021/04/17 02:26:55;;;;;;;13.73;8.90;;;;;;;5.58;63.24;98965.13;5050584;28;20033;-64
2021/04/17 02:29:21;;;;;;;9.13;8.00;;;;;;;5.59;63.34;98973.59;5052112;28;20064;-63
2021/04/17 02:31:46;;;;;;;11.07;9.23;;;;;;;5.56;63.60;98969.34;5051895;28;20065;-64
2021/04/17 02:34:12;;;;;;;11.00;8.57;;;;;;;5.62;63.99;98968.53;5052581;28;20041;-64
2021/04/17 02:36:38;;;;;;;11.97;8.50;;;;;;;5.63;63.46;98967.69;5050035;28;20431;-64
2021/04/17 02:39:04;;;;;;;10.30;8.43;;;;;;;5.66;63.64;98972.78;5052357;28;20078;-64
2021/04/17 02:41:30;;;;;;;11.27;8.67;;;;;;;5.67;63.34;98967.72;5052350;28;20389;-64
2021/04/17 02:43:56;;;;;;;12.53;8.97;;;;;;;5.66;63.44;98966.03;5051363;28;20448;-64
2021/04/17 02:46:21;;;;;;;13.10;8.90;;;;;;;5.68;63.31;98953.31;5050738;28;20041;-64
2021/04/17 02:48:46;;;;;;;13.37;9.57;;;;;;;5.62;63.31;98963.44;5036008;28;20029;-64
2021/04/17 02:51:12;;;;;;;12.73;9.17;;;;;;;5.62;63.12;98960.91;5052426;28;20029;-64
2021/04/17 02:53:37;;;;;;;13.40;9.53;;;;;;;5.60;63.36;98962.59;5050389;28;20043;-63
2021/04/17 02:56:03;;;;;;;14.57;9.63;;;;;;;5.64;63.35;98959.25;5032255;28;20547;-64
2021/04/17 02:58:29;;;;;;;12.53;9.40;;;;;;;5.58;63.77;98959.19;5048268;28;20048;-63
2021/04/17 03:00:54;;;;;;;12.30;9.37;;;;;;;5.58;63.64;98959.19;5037846;28;20029;-64
2021/04/17 03:03:19;;;;;;;14.43;10.37;;;;;;;5.70;63.20;98954.16;5050873;28;20025;-64
2021/04/17 03:05:45;;;;;;;12.10;9.67;;;;;;;5.64;63.54;98949.91;5054176;28;20044;-64
2021/04/17 03:08:11;;;;;;;13.03;9.37;;;;;;;5.61;63.08;98949.88;5053492;28;20043;-64
2021/04/17 03:10:37;;;;;;;11.63;9.27;;;;;;;5.52;63.45;98954.91;5057141;28;20028;-64
2021/04/17 03:13:04;;;;;;;13.67;9.97;;;;;;;5.64;63.26;98949.06;5056449;28;20033;-64
2021/04/17 03:15:29;;;;;;;13.67;9.90;;;;;;;5.53;63.29;98946.44;5053825;28;20032;-64
2021/04/17 03:17:55;;;;;;;13.17;10.30;;;;;;;5.59;63.70;98940.56;5053835;28;20071;-64
2021/04/17 03:20:20;;;;;;;13.67;9.73;;;;;;;5.61;63.39;98938.84;5055983;28;20028;-63
2021/04/17 03:22:46;;;;;;;13.03;9.53;;;;;;;5.58;63.87;98946.47;5055174;28;20031;-62
2021/04/17 03:25:12;;;;;;;13.47;9.80;;;;;;;5.66;63.77;98944.81;5055300;28;20040;-63
2021/04/17 03:27:39;;;;;;;11.93;10.17;;;;;;;5.61;63.95;98944.78;5055702;28;20037;-63
2021/04/17 03:30:13;;;;;;;12.73;9.87;;;;;;;5.60;64.06;98942.25;5053385;28;20033;-63
2021/04/17 03:32:38;;;;;;;12.20;9.70;;;;;;;5.61;63.82;98937.16;5054731;28;20406;-64
2021/04/17 03:35:08;;;;;;;12.63;10.60;;;;;;;5.66;63.63;98938.03;5053843;28;20123;-63
2021/04/17 03:37:34;;;;;;;14.13;9.70;;;;;;;5.61;63.78;98934.63;5054212;28;20044;-64
2021/04/17 03:39:59;;;;;;;13.77;9.97;;;;;;;5.60;63.90;98937.16;5024192;28;20290;-64
2021/04/17 03:42:25;;;;;;;12.33;10.23;;;;;;;5.64;63.68;98937.19;5052147;28;20037;-64
2021/04/17 03:44:50;;;;;;;13.20;9.43;;;;;;;5.63;63.71;98932.94;5053491;28;20039;-64
2021/04/17 03:47:16;;;;;;;14.67;9.97;;;;;;;5.63;63.58;98932.94;5054257;28;20037;-63
2021/04/17 03:49:41;;;;;;;14.10;10.33;;;;;;;5.61;63.96;98934.63;5052162;28;20113;-64
2021/04/17 03:52:07;;;;;;;11.67;9.30;;;;;;;5.67;63.45;98938.91;5051537;28;20033;-64
2021/04/17 03:54:32;;;;;;;12.40;9.17;;;;;;;5.61;64.00;98943.94;5053722;28;20371;-63
2021/04/17 03:56:58;;;;;;;12.73;9.90;;;;;;;5.66;63.91;98938.03;5054043;28;20064;-64
2021/04/17 03:59:23;;;;;;;13.00;9.93;;;;;;;5.67;63.42;98938.91;5053061;28;20058;-63
2021/04/17 04:01:48;;;;;;;14.93;11.17;;;;;;;5.70;64.03;98939.75;5056344;28;20071;-64
2021/04/17 04:04:14;;;;;;;12.63;10.10;;;;;;;5.66;63.46;98938.03;5053830;28;20286;-64
2021/04/17 04:06:40;;;;;;;12.73;10.27;;;;;;;5.63;63.68;98942.28;5052192;28;20052;-64
2021/04/17 04:09:07;;;;;;;12.57;9.60;;;;;;;5.66;63.27;98938.03;5053541;28;20102;-63
2021/04/17 04:11:32;;;;;;;13.17;9.80;;;;;;;5.57;63.96;98940.53;5053032;28;20037;-64
2021/04/17 04:13:59;;;;;;;15.27;10.20;;;;;;;5.57;63.69;98947.31;5052568;28;20457;-64
2021/04/17 04:16:24;;;;;;;15.43;10.03;;;;;;;5.55;64.05;98941.38;5054075;28;20332;-64
2021/04/17 04:18:50;;;;;;;13.27;9.87;;;;;;;5.59;63.84;98946.50;5054052;28;20032;-64
2021/04/17 04:21:15;;;;;;;14.47;10.63;;;;;;;5.64;63.67;98944.84;5054579;28;20029;-63
2021/04/17 04:23:40;;;;;;;18.07;11.20;;;;;;;5.58;63.61;98954.09;5052624;28;20044;-64
2021/04/17 04:26:06;;;;;;;13.23;9.17;;;;;;;5.62;63.30;98946.50;5054151;28;20075;-64
2021/04/17 04:28:32;;;;;;;16.00;10.97;;;;;;;5.57;63.48;98948.16;5053063;28;20052;-64
2021/04/17 04:30:58;;;;;;;16.00;11.00;;;;;;;5.63;63.27;98944.81;5052193;28;20044;-64
2021/04/17 04:33:23;;;;;;;12.43;9.57;;;;;;;5.57;62.73;98944.75;5050755;28;20098;-64
2021/04/17 04:35:49;;;;;;;14.80;11.03;;;;;;;5.59;63.21;98938.88;5053738;28;20139;-63
2021/04/17 04:38:15;;;;;;;13.67;9.70;;;;;;;5.59;63.28;98943.09;5054512;28;20040;-64
2021/04/17 04:40:40;;;;;;;14.30;11.00;;;;;;;5.57;63.62;98945.63;5052995;28;20036;-63
2021/04/17 04:43:06;;;;;;;14.00;9.93;;;;;;;5.67;62.94;98934.66;5053062;28;20038;-64
2021/04/17 04:45:31;;;;;;;14.27;9.73;;;;;;;5.63;63.36;98935.50;5051517;28;20029;-63
2021/04/17 04:47:57;;;;;;;13.57;9.97;;;;;;;5.69;62.99;98937.19;5053938;28;20032;-63
2021/04/17 04:50:22;;;;;;;13.23;9.73;;;;;;;5.72;63.18;98937.25;5052473;28;20072;-64
2021/04/17 04:52:48;;;;;;;12.10;8.80;;;;;;;5.66;63.39;98934.66;5053927;28;20056;-64
2021/04/17 04:55:14;;;;;;;12.90;9.57;;;;;;;5.74;63.15;98936.38;5054613;28;20074;-63
2021/04/17 04:57:39;;;;;;;13.60;10.23;;;;;;;5.64;63.68;98941.44;5052391;28;20090;-63
2021/04/17 05:00:06;;;;;;;12.50;9.67;;;;;;;5.69;63.60;98938.06;5051406;28;20064;-64
2021/04/17 05:02:31;;;;;;;11.97;9.77;;;;;;;5.70;63.42;98941.44;5050181;28;20051;-64
2021/04/17 05:04:57;;;;;;;12.30;9.27;;;;;;;5.66;63.73;98943.13;5053895;28;20029;-64
2021/04/17 05:07:22;;;;;;;12.10;9.57;;;;;;;5.69;63.45;98940.59;5035405;28;20115;-64
2021/04/17 05:09:47;;;;;;;12.00;9.00;;;;;;;5.67;63.57;98949.06;5053263;28;20096;-64
2021/04/17 05:12:13;;;;;;;12.03;9.83;;;;;;;5.72;64.01;98948.25;5053616;28;20036;-64
2021/04/17 05:14:38;;;;;;;13.23;10.47;;;;;;;5.68;64.15;98941.47;5052686;28;20032;-64
2021/04/17 05:17:04;;;;;;;13.87;10.37;;;;;;;5.70;63.66;98949.94;5052614;28;20017;-64
2021/04/17 05:19:29;;;;;;;13.27;9.90;;;;;;;5.75;63.66;98957.59;5052725;28;20037;-64
2021/04/17 05:21:54;;;;;;;13.07;9.13;;;;;;;5.86;63.34;98950.84;5051485;28;20298;-62
2021/04/17 05:24:20;;;;;;;13.33;10.13;;;;;;;5.90;63.41;98948.38;5054207;28;20083;-64
2021/04/17 05:26:45;;;;;;;14.73;10.50;;;;;;;5.82;63.27;98939.81;5052563;28;20248;-64
2021/04/17 05:29:11;;;;;;;14.57;10.73;;;;;;;5.87;64.00;98953.44;5051515;28;20387;-64
2021/04/17 05:31:36;;;;;;;14.63;11.30;;;;;;;5.92;63.59;98954.31;5051973;28;20033;-64
2021/04/17 05:34:05;;;;;;;14.47;9.93;;;;;;;5.89;63.47;98961.09;5051792;28;20033;-65
2021/04/17 05:36:30;;;;;;;11.33;9.57;;;;;;;6.08;62.74;98962.88;5052558;28;20123;-64
2021/04/17 05:38:56;;;;;;;14.67;9.83;;;;;;;6.09;62.98;98958.63;5052758;28;20386;-64
2021/04/17 05:41:21;;;;;;;16.07;10.50;;;;;;;6.06;62.92;98964.56;5051232;28;20441;-66
2021/04/17 05:43:47;;;;;;;11.27;9.13;;;;;;;5.94;62.71;98962.81;5053699;28;20369;-63
2021/04/17 05:46:12;;;;;;;14.50;10.73;;;;;;;5.94;63.61;98965.34;5052051;28;20044;-65
2021/04/17 05:48:38;;;;;;;13.87;10.20;;;;;;;5.96;63.37;98965.38;5053032;28;20120;-63
2021/04/17 05:51:04;;;;;;;15.60;10.43;;;;;;;5.84;62.48;98967.81;5050846;28;20033;-63
2021/04/17 05:53:29;;;;;;;13.17;9.37;;;;;;;5.82;63.54;98967.81;5049534;28;20033;-63
2021/04/17 05:55:55;;;;;;;16.63;11.03;;;;;;;5.82;63.83;98966.94;5051679;28;20174;-63
2021/04/17 05:58:20;;;;;;;13.90;10.17;;;;;;;5.86;63.22;98974.63;5036211;28;20039;-63
2021/04/17 06:00:46;;;;;;;16.07;11.33;;;;;;;5.84;63.34;98976.31;5051145;28;20354;-63
2021/04/17 06:03:11;;;;;;;12.37;10.47;;;;;;;5.82;62.96;98977.97;5050650;28;20041;-64
2021/04/17 06:05:37;;;;;;;14.97;10.33;;;;;;;5.79;63.24;98969.47;5051892;28;20290;-64
2021/04/17 06:08:03;;;;;;;11.87;9.47;;;;;;;5.85;63.16;98970.38;5034693;28;20036;-63
2021/04/17 06:10:29;;;;;;;13.53;10.20;;;;;;;5.93;63.24;98962.81;5053467;28;20033;-63
2021/04/17 06:12:54;;;;;;;14.63;10.50;;;;;;;5.78;63.28;98962.69;5051001;28;20332;-63
2021/04/17 06:15:19;;;;;;;14.53;10.93;;;;;;;5.95;62.88;98968.75;5053245;28;20116;-63
2021/04/17 06:17:45;;;;;;;12.67;10.07;;;;;;;5.97;62.74;98965.38;5051797;28;20037;-63
2021/04/17 06:20:11;;;;;;;14.03;10.37;;;;;;;6.03;62.55;98964.53;5052347;28;20029;-63
2021/04/17 06:22:36;;;;;;;14.13;10.37;;;;;;;6.01;62.99;98960.28;5050594;28;20515;-63
2021/04/17 06:25:04;;;;;;;14.53;10.70;;;;;;;6.11;62.63;98965.41;5050168;28;20025;-63
2021/04/17 06:27:30;;;;;;;13.37;10.73;;;;;;;6.05;62.49;98960.31;5053371;28;20037;-63
2021/04/17 06:29:55;;;;;;;13.73;10.63;;;;;;;6.13;62.41;98967.97;5051204;28;20375;-63
2021/04/17 06:32:20;;;;;;;12.90;9.87;;;;;;;6.08;62.43;98970.50;5053091;28;20176;-63
2021/04/17 06:34:46;;;;;;;12.33;9.73;;;;;;;6.17;62.11;98964.59;5051914;28;20025;-63
2021/04/17 06:37:11;;;;;;;16.57;12.00;;;;;;;6.31;62.31;98958.72;5051479;28;20361;-63
2021/04/17 06:39:37;;;;;;;15.83;11.37;;;;;;;6.26;62.24;98959.53;5050904;28;20052;-64
2021/04/17 06:42:09;;;;;;;12.63;10.23;;;;;;;6.38;61.67;98968.06;5041394;28;20028;-64
2021/04/17 06:44:36;;;;;;;12.37;9.53;;;;;;;6.49;61.60;98962.16;5055490;28;20033;-64
2021/04/17 06:47:02;;;;;;;14.63;10.27;;;;;;;6.56;61.33;98966.44;5055132;28;20037;-63
2021/04/17 06:49:28;;;;;;;13.80;10.10;;;;;;;6.56;61.04;98969.81;5053058;28;20048;-63
2021/04/17 06:51:56;;;;;;;10.90;8.97;;;;;;;6.62;60.87;98974.09;5052442;28;20374;-63
2021/04/17 06:54:25;;;;;;;14.00;10.20;;;;;;;6.56;61.04;98976.63;5054431;28;20033;-64
2021/04/17 06:56:50;;;;;;;11.70;10.07;;;;;;;6.53;61.38;98971.53;5052125;28;20025;-63
2021/04/17 06:59:17;;;;;;;13.20;9.23;;;;;;;6.55;61.29;98967.25;5055056;28;20033;-64
2021/04/17 07:01:42;;;;;;;14.13;9.80;;;;;;;6.69;60.80;98969.00;5053131;28;20067;-63
2021/04/17 07:04:08;;;;;;;13.97;10.13;;;;;;;6.68;60.48;98969.84;5054311;28;20033;-63
2021/04/17 07:06:34;;;;;;;15.23;9.87;;;;;;;6.63;60.26;98968.97;5052975;28;20092;-63
2021/04/17 07:08:59;;;;;;;15.87;10.90;;;;;;;6.84;59.86;98970.72;5054899;28;20033;-63
2021/04/17 07:11:25;;;;;;;13.23;9.90;;;;;;;6.93;59.80;98970.72;5054389;28;20048;-63
2021/04/17 07:14:14;;;;;;;13.20;9.80;;;;;;;6.91;60.48;98969.03;5053536;28;20091;-63
2021/04/17 07:16:59;;;;;;;13.23;9.47;;;;;;;6.85;60.02;98973.28;5054496;28;20032;-63
2021/04/17 07:19:48;;;;;;;13.85;10.07;;;;;;;6.96;60.42;98973.28;5053565;28;20397;-63
2021/04/17 07:22:29;;;;;;;13.57;10.07;;;;;;;6.91;60.54;98967.34;5053704;28;20036;-63
2021/04/17 07:25:06;;;;;;;15.80;10.77;;;;;;;7.08;60.46;98968.19;5036363;28;20069;-64
2021/04/17 07:27:40;;;;;;;12.67;10.30;;;;;;;6.83;59.85;98969.84;5054550;28;20418;-65
2021/04/17 07:30:15;;;;;;;16.50;9.87;;;;;;;6.70;60.75;98970.72;5054867;28;20024;-64
2021/04/17 07:33:01;;;;;;;17.57;10.47;;;;;;;6.97;60.17;98964.78;5054365;28;20094;-62
2021/04/17 07:35:33;;;;;;;14.37;10.13;;;;;;;6.95;59.71;98970.75;5018201;28;20041;-64
2021/04/17 07:38:22;;;;;;;14.47;9.67;;;;;;;6.92;59.58;98974.13;5043033;28;20029;-63
2021/04/17 07:41:07;;;;;;;17.47;11.13;;;;;;;6.88;60.17;98974.97;5053776;28;20025;-64
2021/04/17 07:43:58;;;;;;;14.73;10.27;;;;;;;6.85;60.20;98967.31;5052728;28;20033;-63
2021/04/17 07:46:27;;;;;;;12.43;9.77;;;;;;;6.76;60.03;98960.50;5054785;28;20036;-63
2021/04/17 07:49:13;;;;;;;16.90;11.20;;;;;;;7.16;59.65;98958.00;5038031;28;20033;-63
2021/04/17 07:52:09;;;;;;;14.43;9.73;;;;;;;6.84;59.94;98966.47;5052041;28;20036;-64
2021/04/17 07:54:36;;;;;;;14.32;10.65;;;;;;;6.67;60.68;98962.19;5054289;28;20028;-63
2021/04/17 07:57:07;;;;;;;14.43;10.77;;;;;;;6.84;60.56;98973.25;5054441;28;20051;-66
2021/04/17 07:59:33;;;;;;;13.37;10.77;;;;;;;6.83;59.93;98971.59;5037937;28;20020;-64
2021/04/17 08:02:00;;;;;;;16.43;12.60;;;;;;;6.74;60.49;98961.38;5054917;28;20064;-64
2021/04/17 08:04:27;;;;;;;16.07;11.40;;;;;;;6.67;60.52;98957.94;5037256;28;20048;-62
2021/04/17 08:06:55;;;;;;;16.00;11.63;;;;;;;6.91;60.05;98959.69;5053810;28;20049;-61
2021/04/17 08:09:26;;;;;;;11.93;10.13;;;;;;;7.02;60.13;98963.09;5052662;28;20025;-64
2021/04/17 08:11:54;;;;;;;12.87;10.50;;;;;;;7.13;59.85;98968.22;5055010;28;20033;-64
2021/04/17 08:14:21;;;;;;;15.93;9.97;;;;;;;7.06;59.66;98969.88;5054764;28;20032;-65
2021/04/17 08:16:48;;;;;;;15.13;11.27;;;;;;;7.12;59.75;98961.41;5051770;28;20041;-64
2021/04/17 08:19:14;;;;;;;14.40;11.20;;;;;;;7.42;59.68;98963.94;5053764;28;20039;-62
2021/04/17 08:21:39;;;;;;;14.17;9.97;;;;;;;7.48;58.28;98963.06;5053453;28;20025;-63
2021/04/17 08:24:11;;;;;;;14.13;10.33;;;;;;;7.30;58.94;98963.91;5055512;28;20036;-63
2021/04/17 08:26:38;;;;;;;14.00;9.47;;;;;;;7.39;59.36;98963.91;5055186;28;20573;-63
2021/04/17 08:29:04;;;;;;;14.73;10.30;;;;;;;7.52;58.46;98962.19;5051394;28;20060;-63
2021/04/17 08:31:38;;;;;;;13.17;10.30;;;;;;;7.60;58.18;98958.78;5054422;28;20075;-63
2021/04/17 08:34:18;;;;;;;13.13;9.80;;;;;;;7.21;58.89;98959.69;5055036;28;20029;-63
2021/04/17 08:36:48;;;;;;;13.47;9.83;;;;;;;7.36;58.41;98956.28;5052914;28;20140;-63
2021/04/17 08:39:31;;;;;;;12.00;9.00;;;;;;;7.67;58.03;98944.31;5055572;28;20032;-63
2021/04/17 08:41:57;;;;;;;11.67;9.03;;;;;;;7.71;57.61;98940.91;5052061;28;20017;-63
2021/04/17 08:44:43;;;;;;;12.57;8.63;;;;;;;7.69;57.50;98943.47;5052660;28;20314;-64
2021/04/17 08:47:09;;;;;;;;;;;;;;;7.61;57.88;98940.06;5053162;28;20048;-63
2021/04/17 08:49:42;;;;;;;13.90;9.37;;;;;;;7.68;57.68;98940.94;5053636;28;19970;-63
2021/04/17 08:52:11;;;;;;;13.57;10.23;;;;;;;7.52;58.18;98939.25;5052441;28;20029;-63
2021/04/17 08:54:38;;;;;;;13.77;10.23;;;;;;;7.77;57.84;98940.88;5053534;28;20060;-63
2021/04/17 08:57:15;;;;;;;14.10;9.40;;;;;;;8.12;56.44;98933.09;5051934;28;20025;-63
2021/04/17 08:59:42;;;;;;;12.40;10.07;;;;;;;7.99;57.20;98936.56;5054023;28;20124;-63
2021/04/17 09:02:09;;;;;;;10.80;8.43;;;;;;;7.65;57.26;98935.81;5049587;28;20037;-63
2021/04/17 09:04:55;;;;;;;12.57;8.80;;;;;;;7.65;57.42;98930.72;5036857;28;20126;-63
2021/04/17 09:07:20;;;;;;;12.80;8.95;;;;;;;7.39;58.47;98940.13;5051193;28;20053;-62
2021/04/17 09:09:45;;;;;;;11.70;8.57;;;;;;;7.51;57.94;98937.56;5052689;28;20033;-62
2021/04/17 09:12:11;;;;;;;13.50;10.00;;;;;;;7.54;58.85;98929.91;5052940;28;20115;-62
2021/04/17 09:14:36;;;;;;;13.10;9.80;;;;;;;7.65;58.44;98943.47;5053189;28;20033;-62
2021/04/17 09:17:08;;;;;;;11.93;9.03;;;;;;;7.76;57.77;98934.09;5052216;28;20424;-62
2021/04/17 09:19:46;;;;;;;12.13;8.97;;;;;;;7.79;57.36;98929.84;5035355;28;20120;-62
2021/04/17 09:22:27;;;;;;;11.77;8.20;;;;;;;7.93;56.44;98928.94;5051054;28;20116;-62
2021/04/17 09:24:55;;;;;;;10.97;8.67;;;;;;;7.93;57.26;98937.44;5035692;28;20037;-62
2021/04/17 09:27:34;;;;;;;15.13;9.73;;;;;;;8.20;55.92;98927.09;5053033;28;20115;-62
2021/04/17 09:30:05;;;;;;;15.37;9.17;;;;;;;8.10;55.45;98932.28;5051728;28;20124;-63
2021/04/17 09:32:32;;;;;;;9.83;8.17;;;;;;;7.81;56.02;98932.34;5050359;28;20078;-62
2021/04/17 09:34:58;;;;;;;14.63;9.07;;;;;;;7.98;55.99;98920.38;5036568;28;20329;-62
2021/04/17 09:37:31;;;;;;;13.97;8.53;;;;;;;8.23;56.02;98929.63;5051696;28;20569;-62
2021/04/17 09:39:57;;;;;;;10.63;8.03;;;;;;;8.48;54.87;98925.31;5051834;28;20036;-64
2021/04/17 09:42:36;;;;;;;11.53;8.33;;;;;;;8.40;54.66;98927.03;5051267;28;20017;-63
2021/04/17 09:45:04;;;;;;;10.40;8.13;;;;;;;8.34;55.00;98921.09;5051688;28;20037;-64
2021/04/17 09:47:29;;;;;;;13.30;8.40;;;;;;;8.24;54.68;98921.13;5053151;28;20028;-65
2021/04/17 09:49:56;;;;;;;10.07;7.83;;;;;;;8.31;54.75;98916.03;5052089;28;20043;-64
2021/04/17 09:52:22;;;;;;;12.70;8.30;;;;;;;8.09;55.01;98918.66;5051549;28;20031;-63
2021/04/17 09:54:56;;;;;;;10.17;9.10;;;;;;;8.20;55.04;98919.44;5051980;28;20039;-64
2021/04/17 09:57:21;;;;;;;10.33;7.93;;;;;;;8.20;54.34;98914.34;5049485;28;20056;-63
2021/04/17 09:59:54;;;;;;;11.93;7.70;;;;;;;8.54;54.38;98919.28;5051700;28;20397;-64
2021/04/17 10:02:20;;;;;;;9.97;7.43;;;;;;;8.53;54.15;98918.44;5051210;28;21259;-63
2021/04/17 10:04:50;;;;;;;10.03;7.33;;;;;;;8.72;53.68;98914.06;5051704;28;20032;-64
2021/04/17 10:07:15;;;;;;;11.60;8.17;;;;;;;8.62;53.55;98907.28;5050301;28;20053;-63
2021/04/17 10:09:42;;;;;;;11.30;7.43;;;;;;;8.92;52.89;98904.53;5050311;28;20043;-63
2021/04/17 10:12:08;;;;;;;9.97;6.97;;;;;;;8.97;52.68;98905.34;5052539;28;20032;-63
2021/04/17 10:14:34;;;;;;;10.77;7.10;;;;;;;9.23;51.78;98899.16;5050578;28;20037;-63
2021/04/17 10:17:00;;;;;;;10.53;7.87;;;;;;;9.12;52.07;98901.81;5052277;28;20028;-63
2021/04/17 10:19:28;;;;;;;10.80;6.87;;;;;;;9.21;51.24;98900.88;5052387;28;20024;-63
2021/04/17 10:21:57;;;;;;;9.40;7.03;;;;;;;9.31;51.38;98887.97;5049454;28;20028;-63
2021/04/17 10:24:27;;;;;;;13.50;8.17;;;;;;;9.14;52.14;98895.81;5050731;28;20413;-63
2021/04/17 10:26:54;;;;;;;12.43;8.30;;;;;;;9.25;52.10;98889.75;5050489;28;20031;-63
2021/04/17 10:29:20;;;;;;;12.40;8.33;;;;;;;9.29;51.44;98889.72;5052382;28;20444;-62
2021/04/17 10:31:57;;;;;;;9.40;6.67;;;;;;;9.26;51.80;98892.28;5051248;28;20238;-62
2021/04/17 10:34:23;;;;;;;10.17;7.70;;;;;;;9.11;53.27;98885.63;5051429;28;20360;-62
2021/04/17 10:37:00;;;;;;;9.97;7.13;;;;;;;8.98;52.02;98881.47;5052229;28;20021;-65
2021/04/17 10:39:27;;;;;;;10.87;7.70;;;;;;;9.22;51.92;98871.84;5034920;28;20112;-63
2021/04/17 10:42:09;;;;;;;10.47;8.60;;;;;;;8.92;52.66;98871.28;5052358;28;20436;-63
2021/04/17 10:44:35;;;;;;;12.27;8.30;;;;;;;8.62;53.73;98868.97;5051210;28;20033;-63
2021/04/17 10:47:02;;;;;;;10.60;8.53;;;;;;;8.87;53.85;98870.47;5053078;28;20036;-64
2021/04/17 10:49:38;;;;;;;11.43;8.63;;;;;;;8.85;53.37;98867.09;5050182;28;20040;-64
2021/04/17 10:52:23;;;;;;;12.47;9.70;;;;;;;8.82;53.89;98873.94;5050650;28;20033;-64
2021/04/17 10:54:53;;;;;;;13.93;8.98;;;;;;;8.51;53.70;98874.16;5052267;28;20033;-63
2021/04/17 10:57:19;;;;;;;12.73;9.40;;;;;;;8.71;53.32;98876.56;5051432;28;20060;-63
2021/04/17 10:59:55;;;;;;;12.50;7.80;;;;;;;8.69;53.41;98878.31;5051576;28;20087;-63
2021/04/17 11:02:28;;;;;;;11.83;9.17;;;;;;;8.51;54.40;98883.53;5033056;28;20033;-64
2021/04/17 11:04:55;;;;;;;14.17;9.77;;;;;;;8.54;53.95;98884.34;5050672;28;20438;-63
2021/04/17 11:07:28;;;;;;;16.03;10.60;;;;;;;8.65;54.31;98889.41;5049284;28;20308;-64
2021/04/17 11:09:54;;;;;;;12.57;8.97;;;;;;;8.65;53.42;98885.16;5052135;28;20055;-64
2021/04/17 11:12:28;;;;;;;13.60;9.70;;;;;;;8.93;53.19;98874.69;5050989;28;20036;-64
2021/04/17 11:15:12;;;;;;;13.20;8.97;;;;;;;8.86;53.25;98881.56;5052543;28;20134;-65
2021/04/17 11:17:38;;;;;;;12.57;9.80;;;;;;;8.66;52.31;98873.19;5051626;28;20029;-63
2021/04/17 11:20:19;;;;;;;10.37;8.47;;;;;;;8.76;52.47;98881.66;5051515;28;20036;-63
2021/04/17 11:22:45;;;;;;;11.10;8.47;;;;;;;8.67;52.93;98878.31;5034571;28;20033;-62
2021/04/17 11:25:11;;;;;;;9.73;7.83;;;;;;;8.90;52.56;98869.63;5048656;28;20030;-62
2021/04/17 11:27:37;;;;;;;10.63;8.43;;;;;;;8.71;51.81;98874.00;5052012;28;20043;-62
2021/04/17 11:30:06;;;;;;;10.73;8.17;;;;;;;8.68;51.82;98864.66;5054380;28;20021;-62
2021/04/17 11:32:31;;;;;;;12.00;8.20;;;;;;;8.63;52.57;98865.56;5052958;28;20037;-63
2021/04/17 11:34:57;;;;;;;10.97;8.47;;;;;;;8.82;52.42;98879.06;5054117;28;20378;-62
2021/04/17 11:37:25;;;;;;;10.53;9.03;;;;;;;8.56;53.12;98885.22;5052906;28;20024;-62